Time;durP1;ratioP1;P1;durP2;ratioP2;P2;SDS_P1;SDS_P2;PMS_P1;PMS_P2;Temp;Humidity;BMP_temperature;BMP_pressure;BME280_temperature;BME280_humidity;BME280_pressure;Samples;Min_cycle;Max_cycle;Signal;HPM_P1;HPM_P2
2023/07/23 00:01:16;;;;;;;0.50;0.20;;;;;;;18.11;70.92;99822.97;5043850;28;20507;-49
2023/07/23 00:03:42;;;;;;;0.50;0.20;;;;;;;17.95;72.26;99812.34;5048522;28;20901;-48
2023/07/23 00:06:09;;;;;;;0.50;0.20;;;;;;;17.84;72.62;99814.06;5034430;28;20451;-49
2023/07/23 00:08:35;;;;;;;0.50;0.20;;;;;;;17.90;72.61;99813.63;5048135;28;20880;-49
2023/07/23 00:11:02;;;;;;;0.50;0.40;;;;;;;18.07;71.94;99813.38;5047101;28;20554;-50
2023/07/23 00:13:28;;;;;;;0.50;0.20;;;;;;;17.92;72.84;99817.09;5035566;28;20578;-49
2023/07/23 00:15:55;;;;;;;0.50;0.20;;;;;;;17.96;72.70;99815.94;5047164;28;20532;-51
2023/07/23 00:18:21;;;;;;;0.50;0.20;;;;;;;17.88;72.83;99812.88;5041066;28;20451;-50
2023/07/23 00:20:48;;;;;;;0.50;0.30;;;;;;;17.84;73.37;99811.38;5041833;28;20891;-49
2023/07/23 00:23:14;;;;;;;0.50;0.20;;;;;;;17.86;72.95;99804.94;5053830;28;20807;-49
2023/07/23 00:25:42;;;;;;;0.50;0.20;;;;;;;17.79;72.99;99805.41;5041906;28;20562;-49
2023/07/23 00:28:08;;;;;;;0.50;0.20;;;;;;;17.52;74.33;99805.38;5023719;28;20539;-49
2023/07/23 00:30:35;;;;;;;0.50;0.20;;;;;;;17.58;74.60;99800.47;5047466;28;20462;-49
2023/07/23 00:33:02;;;;;;;0.50;0.20;;;;;;;17.55;75.28;99800.69;5040674;28;20470;-49
2023/07/23 00:35:28;;;;;;;0.50;0.20;;;;;;;17.51;75.11;99803.63;5041119;28;20486;-49
2023/07/23 00:37:55;;;;;;;0.50;0.20;;;;;;;17.52;75.43;99798.16;5028302;28;20493;-50
2023/07/23 00:40:21;;;;;;;0.50;0.20;;;;;;;17.71;74.03;99795.19;5040853;28;20526;-50
2023/07/23 00:42:48;;;;;;;0.50;0.20;;;;;;;17.41;75.52;99795.34;5037170;28;20460;-49
2023/07/23 00:45:14;;;;;;;0.50;0.20;;;;;;;17.27;75.87;99796.22;5047630;28;20470;-49
2023/07/23 00:47:42;;;;;;;0.50;0.20;;;;;;;17.19;76.76;99793.16;5040993;28;20997;-50
2023/07/23 00:50:09;;;;;;;0.50;0.20;;;;;;;17.12;77.16;99791.81;5039982;28;21016;-49
2023/07/23 00:52:36;;;;;;;0.50;0.20;;;;;;;17.08;77.06;99791.13;5041224;28;20960;-49
2023/07/23 00:55:03;;;;;;;0.50;0.20;;;;;;;16.96;77.56;99783.84;5027266;28;20583;-49
2023/07/23 00:57:30;;;;;;;0.50;0.20;;;;;;;16.99;77.40;99785.47;5048669;28;20482;-49
2023/07/23 00:59:56;;;;;;;0.50;0.20;;;;;;;16.80;78.22;99786.66;5040242;28;20937;-49
2023/07/23 01:02:25;;;;;;;0.50;0.20;;;;;;;16.93;77.37;99786.75;5045780;28;20451;-49
2023/07/23 01:04:54;;;;;;;0.50;0.20;;;;;;;16.84;78.23;99788.16;5035552;28;20451;-50
2023/07/23 01:07:23;;;;;;;0.50;0.20;;;;;;;16.80;78.14;99781.28;5027974;28;20480;-49
2023/07/23 01:09:51;;;;;;;0.50;0.40;;;;;;;16.86;78.08;99777.38;5047199;28;20537;-49
2023/07/23 01:12:18;;;;;;;0.50;0.20;;;;;;;16.83;78.31;99775.72;5042810;28;20871;-49
2023/07/23 01:14:45;;;;;;;0.50;0.20;;;;;;;16.83;78.26;99769.47;5039841;28;21557;-50
2023/07/23 01:17:14;;;;;;;0.50;0.20;;;;;;;16.86;78.22;99774.69;5044288;28;20542;-49
2023/07/23 01:19:41;;;;;;;0.50;0.20;;;;;;;16.81;78.50;99763.34;5046210;28;20550;-49
2023/07/23 01:22:07;;;;;;;0.50;0.20;;;;;;;16.74;78.53;99757.50;5043466;28;20573;-50
2023/07/23 01:24:35;;;;;;;0.50;0.20;;;;;;;16.80;78.53;99762.47;5039887;28;20459;-49
2023/07/23 01:27:03;;;;;;;0.50;0.20;;;;;;;16.67;78.78;99760.63;5052228;28;20452;-50
2023/07/23 01:29:29;;;;;;;0.50;0.20;;;;;;;16.68;78.60;99754.34;5039823;28;20517;-49
2023/07/23 01:31:56;;;;;;;0.50;0.20;;;;;;;16.66;78.92;99754.41;5042513;28;20992;-49
2023/07/23 01:34:23;;;;;;;0.50;0.20;;;;;;;16.59;79.18;99761.97;5042503;28;20492;-49
2023/07/23 01:36:51;;;;;;;0.50;0.20;;;;;;;16.56;79.67;99759.47;5013675;28;20543;-49
2023/07/23 01:39:18;;;;;;;0.50;0.20;;;;;;;16.51;79.52;99752.66;5035469;28;20490;-49
2023/07/23 01:41:44;;;;;;;0.50;0.20;;;;;;;16.58;79.47;99751.31;5046405;28;20531;-50
2023/07/23 01:44:11;;;;;;;3.03;1.17;;;;;;;16.52;79.24;99751.72;5035493;28;20482;-49
2023/07/23 01:46:37;;;;;;;0.50;0.20;;;;;;;16.54;79.14;99753.34;5041974;28;20451;-50
2023/07/23 01:49:03;;;;;;;0.50;0.20;;;;;;;16.55;79.39;99736.28;5037705;28;20450;-49
2023/07/23 01:51:31;;;;;;;0.50;0.20;;;;;;;16.41;79.70;99738.94;5041483;28;20895;-49
2023/07/23 01:53:58;;;;;;;0.50;0.20;;;;;;;16.28;80.71;99738.84;5040383;28;20511;-49
2023/07/23 01:56:24;;;;;;;0.50;0.20;;;;;;;16.38;80.34;99735.59;5029027;28;20802;-49
2023/07/23 01:58:51;;;;;;;0.50;0.20;;;;;;;16.44;79.60;99738.75;5031721;28;20542;-50
2023/07/23 02:01:17;;;;;;;0.50;0.20;;;;;;;16.09;80.91;99735.56;5041929;28;20857;-49
2023/07/23 02:03:44;;;;;;;0.50;0.20;;;;;;;16.00;81.69;99734.28;5052121;28;20450;-49
2023/07/23 02:06:10;;;;;;;0.50;0.20;;;;;;;16.04;81.59;99739.47;5040171;28;20458;-49
2023/07/23 02:08:37;;;;;;;0.50;0.20;;;;;;;15.85;82.43;99737.00;5045800;28;20965;-49
2023/07/23 02:11:03;;;;;;;0.50;0.20;;;;;;;15.70;82.77;99736.09;5045536;28;20571;-49
2023/07/23 02:13:30;;;;;;;0.50;0.20;;;;;;;15.64;83.38;99731.97;5039335;28;20453;-49
2023/07/23 02:15:56;;;;;;;0.50;0.20;;;;;;;15.73;82.98;99741.25;5039341;28;20543;-49
2023/07/23 02:18:23;;;;;;;0.50;0.20;;;;;;;15.49;83.52;99730.16;5026191;28;20858;-49
2023/07/23 02:20:49;;;;;;;0.50;0.20;;;;;;;15.36;84.36;99731.81;5052059;28;20896;-50
2023/07/23 02:23:16;;;;;;;0.50;0.20;;;;;;;15.35;84.01;99732.72;5039264;28;21002;-49
2023/07/23 02:25:43;;;;;;;0.50;0.20;;;;;;;15.26;84.66;99736.81;5038735;28;20444;-49
2023/07/23 02:28:11;;;;;;;0.50;0.20;;;;;;;15.21;84.92;99732.66;5022902;28;20451;-49
2023/07/23 02:30:37;;;;;;;0.50;0.20;;;;;;;15.13;85.15;99741.13;5045360;28;20540;-49
2023/07/23 02:33:04;;;;;;;0.50;0.20;;;;;;;14.99;86.10;99741.03;5040051;28;20482;-49
2023/07/23 02:35:36;;;;;;;0.50;0.20;;;;;;;15.18;85.47;99735.50;5038608;28;21078;-49
2023/07/23 02:38:03;;;;;;;0.43;0.20;;;;;;;14.97;86.19;99743.81;5052192;28;20868;-50
2023/07/23 02:43:12;;;;;;;0.40;0.20;;;;;;;14.96;86.78;99736.72;4991091;28;20462;-49
2023/07/23 02:45:39;;;;;;;0.50;0.20;;;;;;;15.03;86.05;99734.56;4992547;28;20803;-49
2023/07/23 02:48:07;;;;;;;0.50;0.20;;;;;;;14.95;86.26;99740.34;4992733;28;20899;-49
2023/07/23 02:50:34;;;;;;;0.50;0.20;;;;;;;14.80;86.79;99739.38;4992616;28;20508;-50
2023/07/23 02:53:00;;;;;;;0.50;0.20;;;;;;;14.82;87.13;99740.16;4992761;28;20536;-49
2023/07/23 02:55:26;;;;;;;0.50;0.20;;;;;;;14.73;87.34;99734.44;5002125;28;20574;-50
2023/07/23 02:57:53;;;;;;;0.40;0.20;;;;;;;14.66;88.05;99733.88;4978838;28;20482;-49
2023/07/23 03:00:19;;;;;;;0.50;0.20;;;;;;;14.57;88.40;99730.88;4990129;28;20457;-49
2023/07/23 03:02:47;;;;;;;0.50;0.20;;;;;;;14.62;87.91;99732.34;4982158;28;20517;-49
2023/07/23 03:05:14;;;;;;;0.50;0.20;;;;;;;14.52;88.72;99734.63;4990190;28;20445;-49
2023/07/23 03:07:41;;;;;;;0.50;0.20;;;;;;;14.44;88.49;99730.66;4992817;28;20453;-49
2023/07/23 03:10:08;;;;;;;0.50;0.20;;;;;;;14.67;88.04;99730.31;4992462;28;21008;-49
2023/07/23 03:12:34;;;;;;;0.50;0.20;;;;;;;14.54;88.51;99731.91;4992474;28;20505;-49
2023/07/23 03:15:01;;;;;;;0.50;0.20;;;;;;;14.56;88.91;99737.19;4992490;28;20572;-49
2023/07/23 03:17:28;;;;;;;0.50;0.30;;;;;;;14.58;88.98;99735.28;4992576;28;20890;-49
2023/07/23 03:19:54;;;;;;;0.50;0.20;;;;;;;14.55;89.40;99738.97;4992405;28;20541;-49
2023/07/23 03:22:21;;;;;;;0.50;0.20;;;;;;;14.45;89.48;99737.75;4992366;28;20978;-49
2023/07/23 03:24:47;;;;;;;0.40;0.20;;;;;;;14.49;89.06;99739.28;4992561;28;20454;-49
2023/07/23 03:27:14;;;;;;;0.50;0.20;;;;;;;14.53;89.25;99738.22;4992591;28;20449;-49
2023/07/23 03:29:40;;;;;;;0.40;0.20;;;;;;;14.54;88.98;99737.25;4979238;28;20453;-50
2023/07/23 03:32:07;;;;;;;0.40;0.20;;;;;;;14.49;89.27;99731.28;4992230;28;20827;-49
2023/07/23 03:34:34;;;;;;;1.00;1.00;;;;;;;14.42;89.11;99733.41;4992164;28;20489;-49
2023/07/23 03:37:00;;;;;;;0.47;0.20;;;;;;;14.36;89.86;99736.38;4992593;28;20507;-49
2023/07/23 03:39:27;;;;;;;0.40;0.20;;;;;;;14.42;89.70;99738.75;4992413;28;20450;-49
2023/07/23 03:41:53;;;;;;;0.47;0.20;;;;;;;14.33;90.77;99744.56;4993194;28;20560;-50
2023/07/23 03:44:20;;;;;;;0.40;0.20;;;;;;;14.34;89.76;99740.09;4996011;28;20533;-49
2023/07/23 03:47:09;;;;;;;0.47;0.20;;;;;;;14.28;90.63;99740.41;4995754;28;20895;-50
2023/07/23 03:49:35;;;;;;;0.40;0.20;;;;;;;14.19;90.92;99744.44;4976473;28;20955;-49
2023/07/23 03:52:02;;;;;;;0.40;0.20;;;;;;;13.94;91.85;99747.50;4991307;28;21060;-49
2023/07/23 03:54:29;;;;;;;0.40;0.20;;;;;;;14.01;92.10;99745.38;5005128;28;20491;-50
2023/07/23 03:56:55;;;;;;;0.40;0.20;;;;;;;13.90;92.65;99743.25;4988933;28;20485;-49
2023/07/23 03:59:22;;;;;;;0.43;0.20;;;;;;;13.88;93.30;99750.50;4985213;28;20453;-49
2023/07/23 04:01:48;;;;;;;0.40;0.20;;;;;;;14.05;91.94;99734.44;4992822;28;20518;-49
2023/07/23 04:04:15;;;;;;;0.40;0.20;;;;;;;14.19;92.10;99739.06;4985728;28;20462;-49
2023/07/23 04:06:41;;;;;;;0.50;0.20;;;;;;;14.27;91.38;99730.66;4995706;28;20493;-50
2023/07/23 04:09:08;;;;;;;0.50;0.20;;;;;;;14.21;92.32;99737.19;4995504;28;20453;-49
2023/07/23 04:11:34;;;;;;;0.40;0.20;;;;;;;14.26;91.67;99736.97;4995242;28;20548;-49
2023/07/23 04:14:00;;;;;;;0.40;0.20;;;;;;;14.42;91.10;99736.06;4995211;28;20449;-49
2023/07/23 04:16:27;;;;;;;0.40;0.20;;;;;;;14.52;90.90;99737.31;4995247;28;20895;-49
2023/07/23 04:18:53;;;;;;;0.40;0.20;;;;;;;14.73;90.43;99740.66;4995409;28;20457;-49
2023/07/23 04:21:21;;;;;;;0.40;0.20;;;;;;;14.73;90.40;99739.78;4995245;28;20559;-49
2023/07/23 04:23:49;;;;;;;0.40;0.20;;;;;;;14.88;90.09;99738.09;4995245;28;20457;-49
2023/07/23 04:26:17;;;;;;;0.50;0.30;;;;;;;14.92;90.22;99747.66;4995025;28;20976;-49
2023/07/23 04:28:45;;;;;;;0.40;0.20;;;;;;;15.08;89.90;99745.88;4987109;28;20462;-49
2023/07/23 04:31:12;;;;;;;0.40;0.20;;;;;;;15.20;89.80;99738.97;4984325;28;20525;-50
2023/07/23 04:33:38;;;;;;;0.40;0.20;;;;;;;15.23;89.61;99749.53;4986715;28;20540;-50
2023/07/23 04:36:08;;;;;;;0.40;0.20;;;;;;;15.20;90.28;99750.53;4994775;28;20996;-49
2023/07/23 04:38:35;;;;;;;0.40;0.20;;;;;;;15.30;89.84;99750.88;4994965;28;20460;-49
2023/07/23 04:41:02;;;;;;;0.40;0.20;;;;;;;15.34;89.50;99749.75;4994445;28;21043;-49
2023/07/23 04:43:29;;;;;;;0.40;0.20;;;;;;;15.52;89.12;99743.38;4994680;28;20953;-49
2023/07/23 04:45:55;;;;;;;0.40;0.20;;;;;;;15.59;89.00;99741.16;4994620;28;21005;-49
2023/07/23 04:48:22;;;;;;;0.40;0.20;;;;;;;15.69;88.70;99740.59;4994726;28;20464;-50
2023/07/23 04:50:56;;;;;;;0.40;0.20;;;;;;;15.72;89.66;99744.03;4994216;28;20549;-50
2023/07/23 04:53:23;;;;;;;0.40;0.20;;;;;;;15.74;89.79;99748.34;4993281;28;20457;-50
2023/07/23 04:55:54;;;;;;;0.40;0.20;;;;;;;15.82;89.80;99748.78;4994696;28;20493;-49
2023/07/23 04:58:21;;;;;;;0.40;0.20;;;;;;;15.86;89.15;99738.72;4976116;28;20874;-50
2023/07/23 05:00:48;;;;;;;0.40;0.20;;;;;;;15.86;89.51;99749.44;4994606;28;20449;-49
2023/07/23 05:03:15;;;;;;;0.40;0.20;;;;;;;15.88;90.38;99742.19;4981070;28;20463;-50
2023/07/23 05:05:47;;;;;;;0.40;0.20;;;;;;;15.96;91.08;99738.09;4994320;28;20461;-50
2023/07/23 05:08:14;;;;;;;0.50;0.20;;;;;;;16.06;91.92;99735.75;4994241;28;20537;-49
2023/07/23 05:10:40;;;;;;;0.40;0.20;;;;;;;16.20;91.31;99741.13;4994389;28;20507;-49
2023/07/23 05:13:07;;;;;;;0.40;0.20;;;;;;;16.34;90.69;99742.97;4994276;28;20453;-50
2023/07/23 05:15:33;;;;;;;0.40;0.20;;;;;;;16.47;90.14;99745.78;4994229;28;20572;-50
2023/07/23 05:18:00;;;;;;;0.50;0.20;;;;;;;16.55;89.23;99743.47;4994178;28;20453;-49
2023/07/23 05:20:26;;;;;;;0.40;0.20;;;;;;;16.62;87.92;99743.97;4994175;28;20481;-50
2023/07/23 05:22:55;;;;;;;0.50;0.20;;;;;;;16.62;88.47;99738.59;4993867;28;20520;-50
2023/07/23 05:25:21;;;;;;;0.40;0.20;;;;;;;16.65;89.78;99741.94;4994271;28;20461;-49
2023/07/23 05:27:49;;;;;;;0.40;0.20;;;;;;;16.70;90.22;99739.00;4991376;28;20540;-50
2023/07/23 05:30:17;;;;;;;0.40;0.20;;;;;;;16.82;90.58;99752.50;4984230;28;20541;-50
2023/07/23 05:32:44;;;;;;;0.47;0.20;;;;;;;16.95;90.35;99751.72;4993816;28;20556;-50
2023/07/23 05:35:12;;;;;;;0.50;0.40;;;;;;;17.08;90.01;99748.16;4993652;28;20848;-50
2023/07/23 05:37:39;;;;;;;0.40;0.20;;;;;;;17.16;88.61;99745.88;4993755;28;20869;-50
2023/07/23 05:40:06;;;;;;;0.40;0.20;;;;;;;17.25;88.33;99743.53;4993995;28;20545;-50
2023/07/23 05:42:32;;;;;;;0.40;0.20;;;;;;;17.33;88.41;99744.78;4993411;28;20512;-50
2023/07/23 05:44:59;;;;;;;0.40;0.20;;;;;;;17.45;88.31;99737.72;4993654;28;21018;-50
2023/07/23 05:47:25;;;;;;;0.50;0.20;;;;;;;17.59;87.48;99740.38;4993607;28;20540;-49
2023/07/23 05:49:52;;;;;;;0.50;0.20;;;;;;;17.65;87.88;99736.41;4993703;28;20472;-50
2023/07/23 05:52:18;;;;;;;0.40;0.20;;;;;;;17.75;86.98;99741.09;4993457;28;20967;-50
2023/07/23 05:54:45;;;;;;;0.50;0.20;;;;;;;17.91;86.72;99729.31;5005132;28;20552;-50
2023/07/23 05:57:11;;;;;;;0.40;0.20;;;;;;;17.97;85.88;99745.03;4982546;28;20457;-50
2023/07/23 05:59:38;;;;;;;0.50;0.20;;;;;;;18.13;85.42;99745.72;4985359;28;20537;-49
2023/07/23 06:02:05;;;;;;;0.50;0.20;;;;;;;18.37;84.46;99743.19;4988609;28;20584;-50
2023/07/23 06:04:31;;;;;;;0.50;0.20;;;;;;;18.49;84.35;99742.28;4985533;28;20520;-50
2023/07/23 06:06:58;;;;;;;0.50;0.20;;;;;;;18.58;83.53;99733.56;4993417;28;20450;-50
2023/07/23 06:09:26;;;;;;;0.50;0.20;;;;;;;18.73;81.67;99733.50;4993465;28;20889;-50
2023/07/23 06:11:53;;;;;;;0.50;0.20;;;;;;;18.81;78.26;99742.75;4993061;28;21057;-49
2023/07/23 06:14:19;;;;;;;0.50;0.20;;;;;;;18.86;78.10;99745.13;4993270;28;20804;-50
2023/07/23 06:16:46;;;;;;;0.47;0.20;;;;;;;19.00;78.09;99741.44;4992984;28;20489;-50
2023/07/23 06:19:12;;;;;;;0.50;0.20;;;;;;;18.90;77.31;99743.91;4993055;28;20460;-50
2023/07/23 06:21:39;;;;;;;0.47;0.20;;;;;;;18.99;77.83;99748.66;4992872;28;20917;-50
2023/07/23 06:24:05;;;;;;;0.50;0.20;;;;;;;18.95;77.90;99749.84;4993187;28;20540;-50
2023/07/23 06:26:32;;;;;;;0.50;0.20;;;;;;;19.15;76.55;99751.09;4992983;28;20572;-52
2023/07/23 06:28:58;;;;;;;0.50;0.20;;;;;;;19.27;76.07;99744.81;4980865;28;20536;-52
2023/07/23 06:31:25;;;;;;;0.47;0.20;;;;;;;19.44;75.21;99744.44;4992080;28;20552;-53
2023/07/23 06:33:52;;;;;;;0.50;0.20;;;;;;;19.49;74.67;99736.88;4992887;28;20488;-52
2023/07/23 06:36:18;;;;;;;0.50;0.20;;;;;;;19.55;74.02;99738.28;4992866;28;20581;-52
2023/07/23 06:38:45;;;;;;;0.50;0.20;;;;;;;19.59;74.20;99744.28;4992879;28;20950;-52
2023/07/23 06:41:11;;;;;;;0.43;0.20;;;;;;;19.80;73.80;99738.16;4992732;28;20509;-52
2023/07/23 06:43:38;;;;;;;0.50;0.30;;;;;;;19.79;73.42;99732.88;4992809;28;20477;-52
2023/07/23 06:46:04;;;;;;;0.50;0.20;;;;;;;19.79;73.01;99738.28;4993236;28;20477;-52
2023/07/23 06:48:31;;;;;;;1.93;1.83;;;;;;;19.85;73.00;99742.34;4992942;28;20515;-52
2023/07/23 06:50:57;;;;;;;0.50;0.20;;;;;;;19.92;72.89;99739.06;4992940;28;20482;-52
2023/07/23 06:53:24;;;;;;;0.50;0.20;;;;;;;20.09;72.53;99740.47;4993450;28;20464;-52
2023/07/23 06:56:01;;;;;;;0.50;0.20;;;;;;;20.25;71.89;99741.00;4998317;28;20522;-52
2023/07/23 06:58:29;;;;;;;0.50;0.20;;;;;;;20.25;71.95;99746.41;4975108;28;20510;-52
2023/07/23 07:00:57;;;;;;;0.50;0.20;;;;;;;20.05;72.04;99741.69;4992494;28;21025;-52
2023/07/23 07:03:24;;;;;;;0.50;0.20;;;;;;;20.15;71.91;99747.22;4979764;28;20486;-52
2023/07/23 07:05:51;;;;;;;2.03;1.27;;;;;;;20.25;71.97;99741.00;4992707;28;20974;-52
2023/07/23 07:08:18;;;;;;;0.50;0.20;;;;;;;20.20;72.07;99743.22;4992689;28;20548;-52
2023/07/23 07:10:46;;;;;;;0.50;0.20;;;;;;;20.20;71.63;99739.66;4992535;28;20493;-52
2023/07/23 07:13:13;;;;;;;0.40;0.20;;;;;;;20.24;71.73;99744.69;4992512;28;20460;-51
2023/07/23 07:15:41;;;;;;;0.50;0.20;;;;;;;20.27;71.43;99735.50;4992748;28;20497;-52
2023/07/23 07:18:08;;;;;;;0.50;0.20;;;;;;;20.28;71.24;99734.50;4995777;28;20531;-52
2023/07/23 07:20:34;;;;;;;0.50;0.20;;;;;;;20.37;71.33;99742.75;4996375;28;20560;-52
2023/07/23 07:23:03;;;;;;;0.50;0.20;;;;;;;20.10;71.84;99739.50;4996320;28;20477;-52
2023/07/23 07:25:30;;;;;;;0.47;0.20;;;;;;;20.29;71.62;99733.56;4996321;28;20453;-52
2023/07/23 07:27:56;;;;;;;0.50;0.20;;;;;;;20.39;70.88;99734.53;4992846;28;20542;-52
2023/07/23 07:30:23;;;;;;;0.50;0.20;;;;;;;20.31;71.38;99727.06;4986792;28;20484;-52
2023/07/23 07:32:52;;;;;;;0.43;0.20;;;;;;;20.44;70.70;99734.22;4995966;28;20536;-52
2023/07/23 07:35:19;;;;;;;0.50;0.20;;;;;;;20.23;71.46;99737.56;4996112;28;20592;-51
2023/07/23 07:37:46;;;;;;;0.50;0.20;;;;;;;20.29;71.43;99730.84;4996087;28;20555;-52
2023/07/23 07:40:13;;;;;;;0.50;0.20;;;;;;;20.45;70.94;99730.56;4995925;28;20453;-52
2023/07/23 07:42:40;;;;;;;0.50;0.20;;;;;;;20.50;70.67;99733.72;4995718;28;20476;-52
2023/07/23 07:45:07;;;;;;;0.50;0.20;;;;;;;20.38;70.92;99733.69;4996079;28;20974;-52
2023/07/23 07:47:34;;;;;;;0.40;0.20;;;;;;;20.61;70.32;99722.94;4995956;28;20453;-52
2023/07/23 07:50:00;;;;;;;0.50;0.20;;;;;;;20.68;70.24;99721.47;4995931;28;20455;-52
2023/07/23 07:52:27;;;;;;;0.47;0.20;;;;;;;20.75;70.55;99727.25;4995733;28;20469;-52
2023/07/23 07:54:53;;;;;;;0.50;0.20;;;;;;;20.96;69.90;99725.53;5008277;28;20531;-52
2023/07/23 07:57:20;;;;;;;0.50;0.30;;;;;;;20.73;70.64;99729.22;4982368;28;20545;-52
2023/07/23 07:59:47;;;;;;;0.50;0.20;;;;;;;20.90;69.47;99720.63;4988766;28;20814;-52
2023/07/23 08:02:14;;;;;;;0.50;0.20;;;;;;;20.99;69.15;99728.00;4989380;28;21070;-52
2023/07/23 08:04:40;;;;;;;0.50;0.30;;;;;;;20.81;69.94;99719.50;4988850;28;20481;-52
2023/07/23 08:07:08;;;;;;;0.50;0.20;;;;;;;20.96;70.12;99736.34;4995351;28;20456;-52
2023/07/23 08:09:37;;;;;;;0.50;0.20;;;;;;;20.91;69.99;99736.72;4995321;28;20525;-52
2023/07/23 08:12:05;;;;;;;0.50;0.20;;;;;;;21.12;69.30;99746.78;4976194;28;20570;-52
2023/07/23 08:14:33;;;;;;;0.50;0.20;;;;;;;21.14;69.22;99759.19;4989400;28;21026;-52
2023/07/23 08:16:59;;;;;;;0.50;0.20;;;;;;;21.10;69.25;99751.44;4995515;28;20524;-52
2023/07/23 08:19:26;;;;;;;0.50;0.20;;;;;;;21.25;68.68;99756.53;4995528;28;20485;-52
2023/07/23 08:21:53;;;;;;;0.50;0.20;;;;;;;21.41;68.65;99761.53;5002998;28;20476;-52
2023/07/23 08:24:20;;;;;;;0.50;0.20;;;;;;;21.62;68.57;99741.78;4989974;28;20507;-52
2023/07/23 08:26:49;;;;;;;0.50;0.20;;;;;;;21.67;67.67;99734.19;4995244;28;20930;-51
2023/07/23 08:29:17;;;;;;;0.50;0.20;;;;;;;21.58;67.65;99730.38;4981832;28;20454;-52
2023/07/23 08:31:44;;;;;;;0.50;0.20;;;;;;;21.74;67.07;99728.09;4995044;28;21045;-52
2023/07/23 08:34:11;;;;;;;0.50;0.20;;;;;;;21.87;66.78;99728.78;4995064;28;20461;-51
2023/07/23 08:36:37;;;;;;;0.40;0.20;;;;;;;21.89;65.96;99731.38;4994824;28;20572;-52
2023/07/23 08:39:04;;;;;;;0.50;0.30;;;;;;;22.07;65.42;99720.88;4995260;28;20484;-53
2023/07/23 08:42:05;;;;;;;0.47;0.20;;;;;;;22.03;66.05;99722.94;4995287;28;20489;-52
2023/07/23 08:45:02;;;;;;;0.50;0.20;;;;;;;22.12;65.71;99727.59;4987866;28;20490;-51
2023/07/23 08:47:35;;;;;;;0.50;0.20;;;;;;;22.37;64.40;99720.94;4992756;28;20807;-52
2023/07/23 08:50:02;;;;;;;0.50;0.20;;;;;;;22.66;64.54;99714.81;4994691;28;20449;-52
2023/07/23 08:52:31;;;;;;;0.50;0.20;;;;;;;22.45;63.83;99718.41;4994430;28;20497;-52
2023/07/23 08:54:58;;;;;;;0.50;0.20;;;;;;;22.68;63.66;99707.41;5007797;28;20547;-52
2023/07/23 08:57:24;;;;;;;0.50;0.20;;;;;;;22.61;64.08;99698.94;4980209;28;20529;-52
2023/07/23 08:59:51;;;;;;;0.50;0.20;;;;;;;22.71;63.07;99708.00;4988193;28;20898;-52
2023/07/23 09:02:19;;;;;;;0.50;0.20;;;;;;;22.64;63.01;99709.53;4987169;28;20549;-52
2023/07/23 09:04:46;;;;;;;0.50;0.20;;;;;;;22.62;61.74;99713.38;4989335;28;20541;-52
2023/07/23 09:07:16;;;;;;;0.50;0.20;;;;;;;22.69;60.95;99715.41;4994332;28;20458;-52
2023/07/23 09:09:42;;;;;;;0.50;0.20;;;;;;;22.87;61.15;99715.66;4994169;28;20450;-52
2023/07/23 09:12:09;;;;;;;0.50;0.20;;;;;;;22.79;60.13;99704.63;4994196;28;20533;-52
2023/07/23 09:14:43;;;;;;;2.30;1.13;;;;;;;22.72;60.91;99708.84;4994143;28;20453;-52
2023/07/23 09:17:19;;;;;;;0.50;0.20;;;;;;;22.66;60.56;99704.84;4994147;28;20867;-52
2023/07/23 09:19:45;;;;;;;0.50;0.20;;;;;;;22.82;60.50;99703.47;4993859;28;20882;-52
2023/07/23 09:22:12;;;;;;;0.50;0.20;;;;;;;22.89;59.85;99707.38;4998281;28;21083;-52
2023/07/23 09:24:38;;;;;;;0.77;0.77;;;;;;;23.30;59.81;99709.97;4991367;28;20805;-52
2023/07/23 09:27:09;;;;;;;0.50;0.20;;;;;;;23.31;59.26;99703.53;4993778;28;20537;-52
2023/07/23 09:29:38;;;;;;;0.50;0.20;;;;;;;23.40;58.93;99704.53;4994576;28;20944;-52
2023/07/23 09:32:21;;;;;;;0.50;0.20;;;;;;;23.31;58.37;99699.97;4993747;28;20480;-52
2023/07/23 09:34:48;;;;;;;0.50;0.20;;;;;;;23.33;56.41;99708.81;4993602;28;20824;-53
2023/07/23 09:37:16;;;;;;;0.50;0.20;;;;;;;23.38;55.59;99706.53;4993702;28;20581;-52
2023/07/23 09:39:42;;;;;;;0.50;0.20;;;;;;;23.13;55.95;99705.19;4993271;28;20484;-52
2023/07/23 09:42:10;;;;;;;0.50;0.20;;;;;;;23.04;55.97;99703.31;4993494;28;20564;-52
2023/07/23 09:44:41;;;;;;;0.50;0.20;;;;;;;23.29;55.79;99704.66;4993721;28;20453;-52
2023/07/23 09:47:08;;;;;;;0.50;0.20;;;;;;;23.45;55.37;99710.44;4993535;28;20445;-52
2023/07/23 09:49:36;;;;;;;0.50;0.20;;;;;;;23.67;54.39;99692.19;4993351;28;20456;-52
2023/07/23 09:52:08;;;;;;;0.50;0.20;;;;;;;23.55;55.23;99696.84;4993578;28;20568;-52
2023/07/23 09:54:36;;;;;;;0.50;0.20;;;;;;;23.63;54.42;99700.63;5004130;28;20788;-52
2023/07/23 09:57:03;;;;;;;0.50;0.30;;;;;;;23.83;54.56;99693.31;4985161;28;20530;-53
2023/07/23 09:59:31;;;;;;;0.50;0.20;;;;;;;24.10;53.97;99691.75;4984334;28;20453;-52
2023/07/23 10:01:57;;;;;;;0.50;0.30;;;;;;;24.23;52.79;99690.44;4989094;28;20488;-52
2023/07/23 10:04:28;;;;;;;0.50;0.20;;;;;;;24.39;52.80;99697.16;4984756;28;20777;-52
2023/07/23 10:06:55;;;;;;;0.50;0.20;;;;;;;24.57;51.15;99689.13;4993611;28;20445;-52
2023/07/23 10:09:22;;;;;;;0.50;0.20;;;;;;;24.76;50.85;99697.19;4993374;28;20449;-52
2023/07/23 10:11:49;;;;;;;0.50;0.20;;;;;;;24.76;49.33;99700.75;4993054;28;20903;-52
2023/07/23 10:14:15;;;;;;;0.50;0.30;;;;;;;24.90;49.20;99699.41;4993244;28;20883;-52
2023/07/23 10:16:44;;;;;;;0.50;0.20;;;;;;;24.91;49.77;99692.97;4993006;28;20916;-52
2023/07/23 10:19:13;;;;;;;0.50;0.20;;;;;;;24.93;48.48;99703.69;4993567;28;20453;-52
2023/07/23 10:21:39;;;;;;;0.50;0.20;;;;;;;24.91;48.15;99686.69;4993185;28;20553;-52
2023/07/23 10:24:06;;;;;;;0.50;0.20;;;;;;;24.90;48.95;99687.69;4993266;28;20544;-52
2023/07/23 10:26:41;;;;;;;0.50;0.20;;;;;;;25.12;49.13;99689.19;4994913;28;20935;-52
2023/07/23 10:29:18;;;;;;;0.50;0.30;;;;;;;25.03;48.71;99689.09;4981342;28;20458;-52
2023/07/23 10:31:45;;;;;;;0.50;0.30;;;;;;;24.98;49.36;99696.81;4982459;28;20441;-52
2023/07/23 10:34:21;;;;;;;0.50;0.20;;;;;;;24.99;49.14;99689.50;4989166;28;20504;-53
2023/07/23 10:37:09;;;;;;;0.50;0.20;;;;;;;24.89;49.52;99695.00;4993020;28;20587;-53
2023/07/23 10:39:39;;;;;;;0.50;0.20;;;;;;;25.03;49.90;99685.50;4993209;28;20461;-53
2023/07/23 10:42:06;;;;;;;0.50;0.20;;;;;;;24.88;50.96;99679.69;4992697;28;20477;-53
2023/07/23 10:44:33;;;;;;;0.50;0.20;;;;;;;25.08;49.81;99670.47;4992903;28;20931;-53
2023/07/23 10:47:02;;;;;;;0.50;0.20;;;;;;;25.19;50.54;99653.06;4992884;28;20894;-53
2023/07/23 10:49:30;;;;;;;0.50;0.20;;;;;;;25.37;49.42;99658.53;4992901;28;20424;-54
2023/07/23 10:52:12;;;;;;;0.50;0.23;;;;;;;25.50;48.07;99652.72;4995587;28;20440;-54
2023/07/23 10:54:39;;;;;;;0.50;0.20;;;;;;;25.69;43.68;99644.41;5007788;28;20563;-53
2023/07/23 10:57:06;;;;;;;0.50;0.27;;;;;;;25.66;41.87;99640.13;4987378;28;20995;-53
2023/07/23 10:59:34;;;;;;;0.50;0.20;;;;;;;25.95;40.35;99649.91;4988095;28;20509;-54
2023/07/23 11:02:04;;;;;;;0.50;0.20;;;;;;;26.10;41.11;99644.75;4992509;28;20514;-54
2023/07/23 11:04:36;;;;;;;0.50;0.20;;;;;;;26.09;40.81;99643.03;4988972;28;20833;-54
2023/07/23 11:07:04;;;;;;;0.50;0.23;;;;;;;26.09;41.12;99648.50;4997079;28;20496;-54
2023/07/23 11:09:34;;;;;;;0.50;0.20;;;;;;;26.13;40.91;99652.59;4997007;28;20430;-54
2023/07/23 11:12:05;;;;;;;0.50;0.20;;;;;;;26.15;40.59;99651.41;4996777;28;20444;-54
2023/07/23 11:14:34;;;;;;;0.50;0.20;;;;;;;26.38;40.55;99651.78;4996867;28;20449;-53
2023/07/23 11:17:03;;;;;;;0.50;0.20;;;;;;;26.08;39.55;99647.63;4996818;28;20493;-54
2023/07/23 11:19:31;;;;;;;0.50;0.43;;;;;;;26.08;39.45;99647.63;4997032;28;20458;-54
2023/07/23 11:22:00;;;;;;;0.50;0.20;;;;;;;26.33;39.21;99642.38;4996801;28;20836;-54
2023/07/23 11:24:28;;;;;;;0.50;0.20;;;;;;;26.22;37.77;99668.00;4996341;28;20528;-53
2023/07/23 11:26:59;;;;;;;0.50;0.20;;;;;;;26.19;37.47;99663.75;4996618;28;20453;-54
2023/07/23 11:29:26;;;;;;;0.50;0.23;;;;;;;26.31;38.64;99652.53;4983348;28;20482;-54
2023/07/23 11:31:56;;;;;;;0.50;0.20;;;;;;;26.64;38.99;99662.69;4996312;28;21045;-54
2023/07/23 11:34:24;;;;;;;0.50;0.30;;;;;;;26.78;38.38;99658.50;4996306;28;20425;-54
2023/07/23 11:36:53;;;;;;;0.50;0.20;;;;;;;26.88;38.25;99669.28;4996088;28;20992;-53
2023/07/23 11:39:23;;;;;;;0.50;0.30;;;;;;;26.55;38.63;99661.78;4996164;28;20846;-54